createdAt,value
2023-05-11T00:00:13.958Z,112847.00
2023-05-11T00:05:16.914Z,112885.88
2023-05-11T00:10:20.082Z,112851.06
2023-05-11T00:15:24.504Z,112751.75
2023-05-11T00:20:27.198Z,112787.63
2023-05-11T00:25:29.925Z,112749.66
2023-05-11T00:30:34.376Z,112864.47
2023-05-11T00:35:37.922Z,112939.00
2023-05-11T00:40:40.859Z,113249.72
2023-05-11T00:45:47.949Z,113521.34
2023-05-11T00:50:52.764Z,113871.03
2023-05-11T00:55:56.035Z,114026.09
2023-05-11T01:01:00.473Z,114194.09
2023-05-11T01:06:09.571Z,114286.53
2023-05-11T01:11:17.507Z,114586.16
2023-05-11T01:16:24.558Z,114714.56
2023-05-11T01:21:33.277Z,114909.13
2023-05-11T01:26:45.098Z,115193.25
2023-05-11T01:31:50.479Z,115355.75
2023-05-11T01:36:56.116Z,115580.47
2023-05-11T01:41:59.972Z,115762.56
2023-05-11T01:47:04.840Z,116019.59
2023-05-11T01:52:08.681Z,116229.31
2023-05-11T01:57:13.519Z,116437.69
2023-05-11T02:02:18.979Z,116725.13
2023-05-11T02:07:22.648Z,116803.09
2023-05-11T02:12:26.786Z,116826.41
2023-05-11T02:17:31.645Z,117006.00
2023-05-11T02:22:34.816Z,117166.69
2023-05-11T02:27:37.585Z,117426.00
2023-05-11T02:32:45.596Z,117575.13
2023-05-11T02:37:50.899Z,117786.72
2023-05-11T02:42:57.868Z,118106.75
2023-05-11T02:48:06.188Z,118181.25
2023-05-11T02:53:12.801Z,118203.50
2023-05-11T02:58:16.563Z,118643.19
2023-05-11T03:03:24.587Z,118807.03
2023-05-11T03:08:27.790Z,118958.16
2023-05-11T03:13:30.846Z,119025.25
2023-05-11T03:18:37.410Z,118921.53
2023-05-11T03:23:40.853Z,118950.88
2023-05-11T03:28:45.013Z,119033.88
2023-05-11T03:33:49.406Z,118933.59
2023-05-11T03:38:54.171Z,119105.84
2023-05-11T03:43:58.109Z,119365.91
2023-05-11T03:49:02.553Z,119644.06
2023-05-11T03:54:07.675Z,119827.59
2023-05-11T03:59:16.078Z,120152.13
2023-05-11T04:04:20.506Z,120326.72
2023-05-11T04:09:23.923Z,120542.75
2023-05-11T04:14:28.466Z,120739.63
2023-05-11T04:19:32.607Z,121204.38
2023-05-11T04:24:35.362Z,121294.75
2023-05-11T04:29:38.164Z,121162.72
2023-05-11T04:34:42.487Z,120725.81
2023-05-11T04:39:46.092Z,120463.44
2023-05-11T04:44:49.047Z,120991.97
2023-05-11T04:49:55.635Z,121416.22
2023-05-11T04:54:58.777Z,121894.84
2023-05-11T05:00:01.696Z,122343.50
2023-05-11T05:05:06.988Z,122687.03
2023-05-11T05:10:11.990Z,122892.00
2023-05-11T05:15:14.837Z,122961.00
2023-05-11T05:20:19.308Z,123081.94
2023-05-11T05:25:23.232Z,123649.47
2023-05-11T05:30:26.166Z,123769.97
2023-05-11T05:35:30.343Z,124074.81
2023-05-11T05:40:37.473Z,124600.22
2023-05-11T05:45:40.418Z,125246.66
2023-05-11T05:50:44.683Z,126108.19
2023-05-11T05:55:47.534Z,125883.19
2023-05-11T06:00:50.602Z,126472.00
2023-05-11T06:05:55.089Z,126570.59
2023-05-11T06:10:57.929Z,126748.44
2023-05-11T06:16:00.838Z,127345.56
2023-05-11T06:21:09.750Z,127933.44
2023-05-11T06:26:12.811Z,128143.16
2023-05-11T06:31:16.429Z,128316.44
2023-05-11T06:36:21.562Z,128656.47
2023-05-11T06:41:24.551Z,128839.22
2023-05-11T06:46:28.468Z,129135.50
2023-05-11T06:51:32.634Z,129671.03
2023-05-11T06:56:35.390Z,129892.34
2023-05-11T07:01:38.529Z,129836.25
2023-05-11T07:06:42.762Z,130405.72
2023-05-11T07:11:45.600Z,130569.13
2023-05-11T07:16:48.833Z,130621.59
2023-05-11T07:21:53.041Z,131117.34
2023-05-11T07:26:57.311Z,130725.50
2023-05-11T07:32:00.117Z,130638.09
2023-05-11T07:37:04.258Z,129892.00
2023-05-11T07:42:07.153Z,129252.59
2023-05-11T07:47:10.472Z,128140.13
2023-05-11T07:52:14.618Z,128677.72
2023-05-11T07:57:17.559Z,127527.84
2023-05-11T08:02:20.403Z,126983.72
2023-05-11T08:07:24.768Z,126456.47
2023-05-11T08:12:27.532Z,125709.88
2023-05-11T08:17:30.351Z,125087.94
2023-05-11T08:22:34.548Z,124889.94
2023-05-11T08:27:37.307Z,124520.56
2023-05-11T08:37:47.510Z,123540.75
2023-05-11T08:42:50.748Z,124957.53
2023-05-11T08:47:54.311Z,124694.41
2023-05-11T08:52:58.416Z,124493.19
2023-05-11T08:58:01.980Z,124528.53
2023-05-11T09:03:05.390Z,124679.50
2023-05-11T09:08:09.867Z,124511.41
2023-05-11T09:13:13.011Z,124460.06
2023-05-11T09:18:15.776Z,124474.97
2023-05-11T09:23:20.349Z,124610.00
2023-05-11T09:28:25.540Z,124755.72
2023-05-11T09:33:28.806Z,124923.63
2023-05-11T09:38:33.043Z,125095.84
2023-05-11T09:43:35.785Z,125434.16
2023-05-11T09:48:38.528Z,125405.69
2023-05-11T09:53:45.479Z,125498.59
2023-05-11T09:58:50.207Z,125641.50
2023-05-11T10:04:02.750Z,125882.09
2023-05-11T10:09:14.328Z,125320.06
2023-05-11T10:14:17.604Z,125317.06
2023-05-11T10:19:20.560Z,125143.59
2023-05-11T10:24:24.885Z,124793.69
2023-05-11T10:29:27.760Z,124530.34
2023-05-11T10:34:30.511Z,124180.13
2023-05-11T10:39:38.519Z,123820.22
2023-05-11T10:45:05.605Z,123222.44
2023-05-11T10:50:27.070Z,122460.84
2023-05-11T10:55:40.075Z,121512.28
2023-05-11T11:01:19.914Z,120332.66
2023-05-11T11:06:23.829Z,119305.72
2023-05-11T11:11:32.763Z,118681.19
2023-05-11T11:16:36.078Z,118030.66
2023-05-11T11:21:44.124Z,117312.13
2023-05-11T11:26:50.528Z,116519.56
2023-05-11T11:31:53.244Z,115492.66
2023-05-11T11:37:03.963Z,115115.91
2023-05-11T11:42:09.589Z,114008.94
2023-05-11T11:47:13.242Z,113381.47
2023-05-11T11:52:33.889Z,112695.94
2023-05-11T11:57:49.260Z,111876.59
2023-05-11T12:02:52.244Z,111825.84
2023-05-11T12:07:55.050Z,111439.84
2023-05-11T12:13:00.087Z,111517.19
2023-05-11T12:18:03.370Z,111247.38
2023-05-11T12:23:06.212Z,111503.16
2023-05-11T12:28:12.483Z,112128.22
2023-05-11T12:33:16.238Z,112048.06
2023-05-11T12:38:19.378Z,111933.13
2023-05-11T12:43:24.159Z,112372.38
2023-05-11T12:48:26.938Z,112401.28
2023-05-11T12:53:36.143Z,111802.31
2023-05-11T12:58:41.702Z,112560.38
2023-05-11T13:03:47.440Z,112673.25
2023-05-11T13:08:50.927Z,111904.03
2023-05-11T13:13:56.982Z,112597.66
2023-05-11T13:19:01.159Z,112151.50
2023-05-11T13:24:04.395Z,111715.31
2023-05-11T13:29:10.840Z,111422.25
2023-05-11T13:34:14.099Z,111245.09
2023-05-11T13:39:16.851Z,110965.22
2023-05-11T13:44:20.972Z,111055.16
2023-05-11T13:49:23.687Z,110390.53
2023-05-11T13:54:26.672Z,111005.22
2023-05-11T13:59:30.749Z,110994.94
2023-05-11T14:04:33.475Z,110613.66
2023-05-11T14:09:37.044Z,110543.63
2023-05-11T14:14:41.266Z,111137.81
2023-05-11T14:19:44.138Z,110983.53
2023-05-11T14:24:46.998Z,111352.03
2023-05-11T14:29:52.118Z,111150.34
2023-05-11T14:34:55.011Z,110758.47
2023-05-11T14:39:57.746Z,110455.13
2023-05-11T14:45:01.785Z,110153.06
2023-05-11T14:50:04.812Z,109992.47
2023-05-11T14:55:08.933Z,110263.03
2023-05-11T15:00:14.440Z,110285.44
2023-05-11T15:05:17.503Z,110233.09
2023-05-11T15:10:20.503Z,110128.81
2023-05-11T15:15:24.582Z,110174.81
2023-05-11T15:20:27.313Z,110009.06
2023-05-11T15:25:30.027Z,109920.78
2023-05-11T15:30:34.078Z,110041.84
2023-05-11T15:35:37.198Z,110141.38
2023-05-11T15:40:39.963Z,110279.09
2023-05-11T15:45:44.193Z,110093.53
2023-05-11T15:50:47.526Z,109995.72
2023-05-11T15:55:51.321Z,110162.13
2023-05-11T16:00:58.016Z,110070.72
2023-05-11T16:06:01.411Z,110019.63
2023-05-11T16:11:04.215Z,110300.63
2023-05-11T16:16:08.573Z,110738.19
2023-05-11T16:21:11.310Z,111196.16
2023-05-11T16:26:14.214Z,111145.91
2023-05-11T16:31:18.331Z,111359.53
2023-05-11T16:36:21.256Z,111949.88
2023-05-11T16:41:25.281Z,112130.88
2023-05-11T16:46:29.710Z,112374.34
2023-05-11T16:51:33.876Z,112705.41
2023-05-11T16:56:36.624Z,112751.47
2023-05-11T17:01:40.769Z,113160.81
2023-05-11T17:06:43.581Z,113089.91
2023-05-11T17:11:46.316Z,113440.75
2023-05-11T17:16:50.446Z,113641.13
2023-05-11T17:21:53.178Z,114255.25
2023-05-11T17:26:55.908Z,114435.63
2023-05-11T17:32:00.286Z,114685.72
2023-05-11T17:37:03.699Z,115251.66
2023-05-11T17:42:07.003Z,115395.41
2023-05-11T17:47:11.185Z,115737.94
2023-05-11T17:52:13.914Z,115912.91
2023-05-11T17:57:16.654Z,115868.25
2023-05-11T18:02:20.813Z,115846.28
2023-05-11T18:07:23.587Z,115982.84
2023-05-11T18:12:26.341Z,116253.19
2023-05-11T18:17:30.532Z,116517.34
2023-05-11T18:22:33.995Z,116757.31
2023-05-11T18:27:36.791Z,116898.97
2023-05-11T18:32:40.938Z,117286.16
2023-05-11T18:37:44.015Z,117198.00
2023-05-11T18:42:47.180Z,117622.31
2023-05-11T18:47:51.412Z,117584.94
2023-05-11T18:52:54.191Z,118004.13
2023-05-11T18:57:58.204Z,117844.94
2023-05-11T19:03:02.339Z,118674.91
2023-05-11T19:08:05.493Z,119104.63
2023-05-11T19:13:08.719Z,119462.97
2023-05-11T19:18:12.861Z,119673.38
2023-05-11T19:23:15.816Z,119882.09
2023-05-11T19:28:18.567Z,119877.94
2023-05-11T19:33:22.700Z,119814.69
2023-05-11T19:38:25.560Z,120258.13
2023-05-11T19:43:28.294Z,120677.78
2023-05-11T19:48:32.442Z,120843.84
2023-05-11T19:53:35.282Z,120553.63
2023-05-11T19:58:38.068Z,120456.72
2023-05-11T20:03:42.464Z,120966.28
2023-05-11T20:08:47.904Z,121363.13
2023-05-11T20:13:52.869Z,121682.28
2023-05-11T20:18:59.205Z,122334.09
2023-05-11T20:24:02.273Z,122691.06
2023-05-11T20:29:06.720Z,122904.63
2023-05-11T20:34:10.955Z,123421.34
2023-05-11T20:39:13.951Z,123945.47
2023-05-11T20:44:17.522Z,124615.06
2023-05-11T20:49:37.425Z,125402.13
2023-05-11T20:54:41.464Z,125939.53
2023-05-11T21:04:51.315Z,126178.22
2023-05-11T21:09:54.643Z,126793.84
2023-05-11T21:14:57.413Z,127031.00
2023-05-11T21:20:01.528Z,127463.56
2023-05-11T21:25:04.932Z,127644.53
2023-05-11T21:30:09.906Z,127704.22
2023-05-11T21:35:15.044Z,128073.63
2023-05-11T21:40:18.511Z,128275.00
2023-05-11T21:45:21.692Z,128425.59
2023-05-11T21:50:25.902Z,128807.66
2023-05-11T21:55:28.656Z,129214.16
2023-05-11T22:00:32.946Z,129579.50
2023-05-11T22:05:37.094Z,130057.78
2023-05-11T22:10:39.830Z,130508.25
2023-05-11T22:15:42.593Z,130893.97
2023-05-11T22:20:46.646Z,131320.91
2023-05-11T22:25:49.316Z,131700.56
2023-05-11T22:30:51.986Z,132336.34
2023-05-11T22:35:56.028Z,132504.00
2023-05-11T22:40:58.702Z,132567.63
2023-05-11T22:46:01.428Z,132280.97
2023-05-11T22:51:06.299Z,132441.56
2023-05-11T22:56:09.199Z,132832.94
2023-05-11T23:01:12.368Z,133205.31
2023-05-11T23:06:16.479Z,133501.69
2023-05-11T23:11:19.187Z,133909.03
2023-05-11T23:16:22.274Z,134220.22
2023-05-11T23:21:26.396Z,134214.88
2023-05-11T23:26:29.073Z,134221.47
2023-05-11T23:31:32.677Z,134427.81
2023-05-11T23:36:36.845Z,134508.28
2023-05-11T23:41:39.557Z,134393.44
2023-05-11T23:46:42.268Z,134485.78
2023-05-11T23:51:46.390Z,134684.03
2023-05-11T23:56:49.161Z,134904.88
